createdAt,value
2019-03-08T00:01:49.669Z,1.50
2019-03-08T00:04:31.211Z,1.65
2019-03-08T00:07:12.713Z,0.78
2019-03-08T00:09:52.432Z,2.02
2019-03-08T00:12:41.251Z,1.05
2019-03-08T00:15:29.820Z,1.90
2019-03-08T00:18:18.496Z,1.92
2019-03-08T00:21:07.133Z,1.22
2019-03-08T00:23:57.467Z,1.22
2019-03-08T00:27:01.871Z,1.05
2019-03-08T00:29:38.244Z,1.20
2019-03-08T00:32:27.258Z,1.00
2019-03-08T00:35:16.377Z,1.25
2019-03-08T00:38:05.547Z,1.62
2019-03-08T00:40:54.210Z,1.40
2019-03-08T00:43:43.157Z,0.90
2019-03-08T00:46:31.802Z,2.05
2019-03-08T00:49:20.418Z,1.80
2019-03-08T00:52:01.694Z,1.30
2019-03-08T00:54:43.496Z,1.50
2019-03-08T00:57:24.928Z,1.17
2019-03-08T01:00:06.386Z,1.00
2019-03-08T01:02:47.508Z,0.82
2019-03-08T01:05:30.159Z,1.32
2019-03-08T01:08:11.602Z,1.02
2019-03-08T01:10:52.888Z,1.00
2019-03-08T01:13:33.625Z,1.20
2019-03-08T01:16:15.250Z,1.15
2019-03-08T01:18:56.157Z,1.65
2019-03-08T01:21:35.851Z,1.47
2019-03-08T01:24:24.483Z,1.00
2019-03-08T01:27:13.371Z,1.57
2019-03-08T01:30:02.096Z,1.40
2019-03-08T01:32:50.807Z,1.00
2019-03-08T01:38:38.822Z,2.00
2019-03-08T01:41:27.731Z,1.10
2019-03-08T01:44:16.649Z,1.42
2019-03-08T01:50:04.423Z,1.40
2019-03-08T01:52:45.593Z,1.60
2019-03-08T01:55:27.473Z,1.45
2019-03-08T01:58:08.682Z,1.25
2019-03-08T02:00:49.636Z,1.62
2019-03-08T02:03:31.433Z,1.40
2019-03-08T02:06:12.956Z,1.22
2019-03-08T02:08:55.694Z,1.30
2019-03-08T02:11:36.830Z,1.50
2019-03-08T02:14:18.597Z,1.55
2019-03-08T02:16:59.735Z,1.60
2019-03-08T02:19:40.923Z,0.78
2019-03-08T02:22:23.635Z,1.40
2019-03-08T02:25:05.261Z,1.67
2019-03-08T02:27:46.473Z,1.30
2019-03-08T02:30:27.664Z,1.52
2019-03-08T02:33:08.781Z,1.40
2019-03-08T02:35:49.999Z,1.80
2019-03-08T02:38:30.768Z,1.05
2019-03-08T02:41:11.826Z,1.67
2019-03-08T02:43:52.980Z,1.32
2019-03-08T02:46:33.975Z,1.55
2019-03-08T02:49:15.277Z,1.40
2019-03-08T02:51:56.432Z,1.80
2019-03-08T02:54:37.852Z,2.05
2019-03-08T02:57:19.142Z,1.90
2019-03-08T03:00:00.319Z,2.60
2019-03-08T03:02:41.623Z,1.70
2019-03-08T03:05:23.251Z,1.77
2019-03-08T03:08:04.915Z,2.05
2019-03-08T03:10:44.926Z,2.10
2019-03-08T03:13:33.530Z,2.47
2019-03-08T03:16:23.994Z,2.30
2019-03-08T03:19:13.408Z,2.22
2019-03-08T03:22:02.103Z,3.25
2019-03-08T03:24:51.115Z,2.95
2019-03-08T03:27:39.706Z,2.60
2019-03-08T03:33:23.616Z,3.27
2019-03-08T03:36:12.364Z,3.02
2019-03-08T03:39:00.989Z,3.52
2019-03-08T03:41:49.645Z,3.20
2019-03-08T03:44:38.863Z,3.10
2019-03-08T03:47:27.578Z,3.65
2019-03-08T03:50:18.459Z,3.30
2019-03-08T03:52:58.124Z,3.30
2019-03-08T03:58:54.552Z,2.65
2019-03-08T04:04:54.863Z,2.80
2019-03-08T04:07:43.435Z,3.90
2019-03-08T04:10:43.865Z,3.42
2019-03-08T04:13:22.706Z,3.83
2019-03-08T04:16:11.324Z,3.85
2019-03-08T04:25:05.091Z,4.40
2019-03-08T04:27:53.681Z,4.35
2019-03-08T04:30:46.342Z,6.03
2019-03-08T04:33:35.071Z,3.95
2019-03-08T04:36:25.608Z,4.30
2019-03-08T04:39:15.022Z,4.35
2019-03-08T04:42:03.780Z,4.70
2019-03-08T04:44:52.376Z,6.08
2019-03-08T04:47:41.520Z,5.65
2019-03-08T04:50:30.088Z,5.67
2019-03-08T04:53:10.948Z,5.53
2019-03-08T04:55:52.671Z,6.00
2019-03-08T04:58:33.879Z,5.80
2019-03-08T05:01:15.372Z,5.62
2019-03-08T05:03:55.038Z,6.17
2019-03-08T05:06:43.933Z,5.10
2019-03-08T05:09:34.718Z,5.45
2019-03-08T05:12:23.597Z,5.05
2019-03-08T05:18:22.954Z,4.58
2019-03-08T05:21:01.917Z,5.25
2019-03-08T05:23:50.557Z,4.87
2019-03-08T05:26:39.103Z,4.50
2019-03-08T05:29:28.071Z,5.20
2019-03-08T05:32:30.855Z,6.35
2019-03-08T05:35:07.182Z,6.62
2019-03-08T05:37:55.981Z,5.60
2019-03-08T05:40:58.862Z,5.83
2019-03-08T05:43:35.208Z,6.65
2019-03-08T05:49:22.971Z,7.80
2019-03-08T05:52:04.024Z,7.45
2019-03-08T05:54:44.992Z,7.85
2019-03-08T05:57:28.658Z,7.70
2019-03-08T06:00:10.277Z,7.60
2019-03-08T06:02:51.869Z,8.85
2019-03-08T06:05:33.189Z,7.83
2019-03-08T06:08:14.746Z,7.97
2019-03-08T06:10:55.523Z,9.63
2019-03-08T06:13:36.570Z,9.40
2019-03-08T06:16:17.894Z,7.92
2019-03-08T06:19:00.012Z,10.05
2019-03-08T06:21:41.463Z,7.60
2019-03-08T06:24:22.923Z,9.08
2019-03-08T06:27:02.957Z,8.38
2019-03-08T06:35:56.502Z,8.80
2019-03-08T06:38:45.445Z,9.70
2019-03-08T06:41:34.033Z,8.60
2019-03-08T06:44:34.422Z,10.65
2019-03-08T06:47:12.977Z,9.15
2019-03-08T06:52:50.076Z,9.55
2019-03-08T06:55:31.844Z,10.85
2019-03-08T06:58:15.848Z,10.72
2019-03-08T07:04:10.347Z,11.25
2019-03-08T07:06:51.033Z,10.75
2019-03-08T07:09:32.117Z,10.23
2019-03-08T07:12:13.699Z,9.83
2019-03-08T07:14:55.427Z,10.50
2019-03-08T07:17:36.534Z,10.40
2019-03-08T07:23:28.232Z,9.65
2019-03-08T07:26:18.826Z,11.15
2019-03-08T07:29:22.031Z,12.20
2019-03-08T07:32:24.843Z,12.30
2019-03-08T07:35:25.173Z,11.88
2019-03-08T07:38:40.125Z,13.15
2019-03-08T07:41:30.668Z,11.40
2019-03-08T07:44:36.623Z,13.53
2019-03-08T07:50:40.484Z,11.08
2019-03-08T07:53:27.135Z,11.73
2019-03-08T07:56:30.331Z,11.22
2019-03-08T07:59:37.046Z,11.30
2019-03-08T08:02:38.590Z,10.80
2019-03-08T08:05:39.044Z,9.63
2019-03-08T08:08:27.605Z,7.25
2019-03-08T08:11:35.133Z,10.40
2019-03-08T08:14:42.883Z,9.40
2019-03-08T08:17:50.393Z,11.43
2019-03-08T08:20:45.968Z,12.53
2019-03-08T08:27:03.791Z,10.50
2019-03-08T08:30:11.485Z,8.10
2019-03-08T08:33:18.999Z,6.20
2019-03-08T08:36:29.529Z,3.60
2019-03-08T08:42:55.851Z,5.08
2019-03-08T08:45:54.292Z,5.80
2019-03-08T08:49:15.664Z,5.95
2019-03-08T08:52:06.008Z,7.58
2019-03-08T08:55:18.572Z,7.25
2019-03-08T08:58:13.819Z,7.12
2019-03-08T09:01:18.381Z,8.70
2019-03-08T09:04:24.707Z,7.53
2019-03-08T09:07:32.183Z,6.75
2019-03-08T09:10:39.716Z,7.50
2019-03-08T09:13:47.182Z,7.50
2019-03-08T09:16:54.952Z,4.97
2019-03-08T09:20:02.464Z,4.80
2019-03-08T09:23:10.095Z,7.87
2019-03-08T09:26:17.596Z,4.80
2019-03-08T09:29:25.348Z,5.35
2019-03-08T09:32:32.816Z,6.55
2019-03-08T09:35:40.297Z,7.15
2019-03-08T09:38:47.886Z,6.22
2019-03-08T09:41:55.420Z,6.60
2019-03-08T09:45:02.932Z,5.65
2019-03-08T09:48:10.404Z,5.25
2019-03-08T09:51:18.146Z,6.35
2019-03-08T09:54:05.234Z,6.87
2019-03-08T09:57:05.896Z,6.50
2019-03-08T10:03:26.745Z,6.05
2019-03-08T10:06:30.216Z,4.67
2019-03-08T10:09:31.465Z,3.17
2019-03-08T10:12:34.711Z,3.30
2019-03-08T10:15:34.821Z,3.62
2019-03-08T10:18:41.120Z,4.00
2019-03-08T10:21:44.372Z,3.75
2019-03-08T10:24:42.959Z,3.27
2019-03-08T10:27:52.090Z,3.52
2019-03-08T10:30:59.550Z,2.77
2019-03-08T10:34:07.045Z,3.67
2019-03-08T10:37:14.493Z,3.33
2019-03-08T10:40:22.031Z,3.85
2019-03-08T10:43:29.523Z,4.05
2019-03-08T10:46:37.033Z,4.37
2019-03-08T10:49:44.503Z,3.80
2019-03-08T10:52:52.016Z,4.62
2019-03-08T10:55:44.206Z,3.65
2019-03-08T11:01:45.015Z,3.90
2019-03-08T11:07:47.490Z,3.52
2019-03-08T11:10:53.376Z,4.30
2019-03-08T11:13:43.720Z,3.40
2019-03-08T11:16:44.068Z,3.60
2019-03-08T11:19:54.624Z,3.00
2019-03-08T11:22:50.421Z,4.47
2019-03-08T11:28:52.605Z,3.62
2019-03-08T11:31:42.025Z,2.80
2019-03-08T11:34:41.663Z,3.50
2019-03-08T11:37:47.421Z,3.08
2019-03-08T11:41:05.745Z,2.83
2019-03-08T11:43:47.022Z,3.62
2019-03-08T11:46:47.077Z,2.58
2019-03-08T11:49:40.188Z,3.17
2019-03-08T11:52:47.891Z,3.52
2019-03-08T11:55:57.433Z,2.55
2019-03-08T11:58:44.130Z,3.17
2019-03-08T12:01:47.317Z,4.00
2019-03-08T12:04:58.677Z,2.83
2019-03-08T12:07:35.755Z,2.60
2019-03-08T12:10:37.457Z,4.12
2019-03-08T12:13:37.680Z,4.10
2019-03-08T12:16:43.938Z,3.90
2019-03-08T12:19:48.181Z,3.70
2019-03-08T12:22:45.537Z,3.35
2019-03-08T12:25:45.346Z,4.20
2019-03-08T12:28:48.746Z,3.62
2019-03-08T12:31:48.328Z,3.83
2019-03-08T12:34:41.104Z,3.87
2019-03-08T12:37:41.648Z,3.62
2019-03-08T12:40:42.088Z,3.22
2019-03-08T12:47:05.883Z,3.30
2019-03-08T12:49:46.532Z,2.22
2019-03-08T12:52:48.519Z,2.85
2019-03-08T12:55:54.168Z,2.83
2019-03-08T13:01:37.728Z,2.70
2019-03-08T13:07:57.923Z,3.77
2019-03-08T13:10:40.444Z,3.42
2019-03-08T13:13:22.099Z,4.75
2019-03-08T13:16:03.390Z,4.15
2019-03-08T13:18:44.954Z,4.45
2019-03-08T13:21:26.598Z,4.03
2019-03-08T13:24:07.803Z,4.65
2019-03-08T13:26:49.215Z,2.20
2019-03-08T13:29:30.532Z,2.70
2019-03-08T13:32:12.219Z,3.50
2019-03-08T13:34:53.707Z,3.37
2019-03-08T13:37:34.883Z,2.30
2019-03-08T13:40:15.730Z,2.27
2019-03-08T13:42:57.031Z,2.58
2019-03-08T13:45:36.863Z,2.70
2019-03-08T13:48:25.480Z,3.00
2019-03-08T14:00:04.513Z,3.98
2019-03-08T14:02:53.206Z,4.10
2019-03-08T14:05:43.470Z,4.20
2019-03-08T14:08:32.536Z,4.85
2019-03-08T14:11:21.462Z,4.72
2019-03-08T14:14:10.408Z,4.92
2019-03-08T14:22:50.093Z,4.95
2019-03-08T14:25:38.952Z,5.25
2019-03-08T14:28:27.595Z,6.10
2019-03-08T14:34:32.716Z,4.65
2019-03-08T14:37:21.398Z,5.08
2019-03-08T14:40:29.172Z,4.50
2019-03-08T14:43:36.662Z,4.10
2019-03-08T14:46:44.194Z,3.83
2019-03-08T14:49:32.777Z,2.90
2019-03-08T14:55:22.771Z,3.27
2019-03-08T14:58:11.162Z,3.50
2019-03-08T15:01:02.219Z,4.22
2019-03-08T15:04:04.407Z,4.20
2019-03-08T15:06:54.633Z,4.45
2019-03-08T15:09:31.575Z,3.90
2019-03-08T15:15:29.834Z,5.00
2019-03-08T15:21:27.904Z,5.87
2019-03-08T15:24:18.574Z,6.78
2019-03-08T15:27:07.212Z,8.05
2019-03-08T15:33:05.517Z,6.45
2019-03-08T15:35:54.100Z,7.40
2019-03-08T15:38:42.712Z,7.42
2019-03-08T15:41:31.320Z,6.28
2019-03-08T15:47:23.295Z,7.53
2019-03-08T15:50:18.199Z,7.85
2019-03-08T15:52:56.750Z,7.17
2019-03-08T15:55:57.497Z,7.60
2019-03-08T16:01:45.735Z,8.10
2019-03-08T16:04:34.462Z,8.45
2019-03-08T16:10:23.846Z,7.70
2019-03-08T16:13:12.508Z,7.17
2019-03-08T16:16:01.356Z,7.28
2019-03-08T16:19:04.640Z,9.45
2019-03-08T16:21:40.675Z,8.28
2019-03-08T16:24:31.283Z,8.65
2019-03-08T16:27:12.503Z,9.65
2019-03-08T16:29:53.775Z,9.03
2019-03-08T16:32:57.222Z,8.00
2019-03-08T16:36:02.039Z,7.97
2019-03-08T16:39:02.343Z,7.33
2019-03-08T16:42:02.771Z,8.08
2019-03-08T16:45:03.132Z,5.70
2019-03-08T16:48:03.562Z,5.55
2019-03-08T16:51:03.975Z,6.70
2019-03-08T16:53:59.506Z,6.75
2019-03-08T16:56:59.885Z,5.78
2019-03-08T17:00:00.348Z,7.45
2019-03-08T17:02:46.818Z,7.33
2019-03-08T17:05:42.587Z,7.30
2019-03-08T17:08:51.710Z,7.00
2019-03-08T17:12:05.060Z,9.45
2019-03-08T17:15:00.460Z,9.85
2019-03-08T17:18:07.953Z,8.73
2019-03-08T17:21:15.924Z,8.48
2019-03-08T17:24:19.945Z,8.63
2019-03-08T17:30:31.738Z,6.25
2019-03-08T17:33:21.609Z,6.47
2019-03-08T17:36:20.840Z,6.42
2019-03-08T17:39:10.122Z,5.60
2019-03-08T17:42:17.060Z,5.05
2019-03-08T17:45:16.962Z,5.40
2019-03-08T17:48:20.232Z,5.45
2019-03-08T17:51:33.535Z,5.60
2019-03-08T17:54:21.690Z,6.72
2019-03-08T17:57:12.796Z,8.00
2019-03-08T18:00:12.731Z,6.25
2019-03-08T18:03:12.513Z,6.37
2019-03-08T18:06:12.559Z,7.50
2019-03-08T18:09:12.609Z,5.42
2019-03-08T18:12:02.788Z,5.97
2019-03-08T18:15:02.859Z,6.12
2019-03-08T18:18:03.026Z,5.00
2019-03-08T18:20:53.667Z,5.53
2019-03-08T18:23:59.914Z,7.97
2019-03-08T18:30:09.873Z,6.28
2019-03-08T18:33:10.568Z,6.50
2019-03-08T18:42:28.516Z,6.22
2019-03-08T18:45:28.369Z,5.95
2019-03-08T18:51:26.688Z,5.45
2019-03-08T18:54:27.136Z,5.10
2019-03-08T19:00:35.409Z,5.90
2019-03-08T19:03:42.870Z,5.80
2019-03-08T19:06:50.393Z,5.12
2019-03-08T19:09:58.978Z,4.95
2019-03-08T19:12:56.568Z,4.87
2019-03-08T19:16:04.083Z,5.03
2019-03-08T19:19:11.567Z,5.20
2019-03-08T19:22:26.126Z,4.80
2019-03-08T19:25:18.710Z,4.65
2019-03-08T19:28:18.322Z,4.75
2019-03-08T19:31:05.447Z,4.28
2019-03-08T19:34:05.517Z,4.22
2019-03-08T19:37:05.860Z,4.62
2019-03-08T19:39:57.557Z,4.85
2019-03-08T19:42:56.235Z,4.08
2019-03-08T19:46:03.692Z,4.95
2019-03-08T19:49:11.342Z,4.50
2019-03-08T19:52:18.868Z,4.53
2019-03-08T19:55:15.118Z,4.20
2019-03-08T19:58:22.713Z,4.15
2019-03-08T20:01:30.160Z,4.45
2019-03-08T20:04:37.968Z,3.50
2019-03-08T20:07:45.479Z,4.15
2019-03-08T20:10:53.178Z,3.95
2019-03-08T20:17:19.525Z,3.42
2019-03-08T20:23:55.607Z,4.15
2019-03-08T20:27:03.065Z,4.60
2019-03-08T20:29:59.741Z,4.92
2019-03-08T20:32:49.891Z,4.40
2019-03-08T20:35:47.527Z,3.85
2019-03-08T20:38:47.525Z,4.20
2019-03-08T20:41:54.116Z,4.03
2019-03-08T20:44:55.621Z,3.60
2019-03-08T20:47:37.700Z,3.72
2019-03-08T20:50:18.756Z,4.05
2019-03-08T20:53:00.137Z,3.67
2019-03-08T20:55:41.416Z,3.30
2019-03-08T20:58:22.567Z,4.17
2019-03-08T21:01:04.206Z,3.25
2019-03-08T21:03:45.849Z,4.47
2019-03-08T21:06:27.367Z,3.75
2019-03-08T21:09:08.348Z,4.17
2019-03-08T21:11:50.153Z,4.72
2019-03-08T21:14:31.482Z,4.42
2019-03-08T21:17:13.050Z,4.30
2019-03-08T21:19:54.325Z,4.75
2019-03-08T21:22:35.796Z,4.87
2019-03-08T21:25:17.150Z,4.92
2019-03-08T21:27:57.868Z,5.37
2019-03-08T21:30:38.683Z,5.20
2019-03-08T21:33:20.348Z,5.45
2019-03-08T21:36:02.130Z,5.25
2019-03-08T21:38:43.429Z,6.62
2019-03-08T21:41:24.901Z,6.87
2019-03-08T21:44:06.497Z,6.40
2019-03-08T21:46:47.996Z,6.83
2019-03-08T21:49:29.503Z,6.70
2019-03-08T21:52:11.037Z,6.10
2019-03-08T21:54:52.641Z,6.10
2019-03-08T21:57:33.358Z,6.33
2019-03-08T22:00:14.157Z,5.72
2019-03-08T22:03:03.314Z,6.20
2019-03-08T22:05:51.899Z,6.00
2019-03-08T22:11:46.690Z,5.85
2019-03-08T22:17:30.875Z,4.83
2019-03-08T22:20:12.350Z,5.53
2019-03-08T22:22:53.970Z,5.85
2019-03-08T22:25:35.296Z,4.45
2019-03-08T22:28:16.654Z,4.67
2019-03-08T22:30:58.217Z,4.65
2019-03-08T22:33:39.724Z,5.47
2019-03-08T22:36:21.219Z,4.45
2019-03-08T22:39:02.706Z,5.22
2019-03-08T22:41:43.965Z,4.28
2019-03-08T22:44:25.669Z,5.17
2019-03-08T22:47:06.779Z,5.17
2019-03-08T22:49:48.463Z,4.85
2019-03-08T22:52:29.742Z,4.50
2019-03-08T22:55:11.142Z,4.65
2019-03-08T22:57:52.831Z,5.55
2019-03-08T23:00:52.913Z,4.17
2019-03-08T23:03:34.419Z,4.10
2019-03-08T23:06:16.095Z,4.35
2019-03-08T23:08:57.267Z,4.08
2019-03-08T23:11:38.778Z,5.92
2019-03-08T23:14:20.443Z,3.75
2019-03-08T23:17:02.094Z,3.95
2019-03-08T23:19:43.618Z,3.37
2019-03-08T23:22:25.535Z,3.92
2019-03-08T23:25:07.131Z,3.98
2019-03-08T23:27:52.995Z,4.65
2019-03-08T23:30:34.543Z,3.58
2019-03-08T23:33:15.894Z,3.90
2019-03-08T23:35:57.400Z,3.22
2019-03-08T23:38:37.013Z,4.35
2019-03-08T23:41:27.099Z,3.85
2019-03-08T23:44:08.136Z,4.15
2019-03-08T23:46:48.936Z,4.35
2019-03-08T23:49:30.114Z,3.95
2019-03-08T23:52:11.718Z,3.85
2019-03-08T23:54:53.265Z,3.52
2019-03-08T23:57:34.079Z,3.58
